Time;durP1;ratioP1;P1;durP2;ratioP2;P2;SDS_P1;SDS_P2;PMS_P1;PMS_P2;Temp;Humidity;BMP_temperature;BMP_pressure;BME280_temperature;BME280_humidity;BME280_pressure;Samples;Min_cycle;Max_cycle;Signal;HPM_P1;HPM_P2
2022/04/14 00:00:15;;;;;;;12.75;8.48;;;;;;;;;;5034494;28;20040;-81
2022/04/14 00:02:41;;;;;;;15.00;8.60;;;;;;;;;;5034716;28;20033;-82
2022/04/14 00:05:07;;;;;;;16.30;8.65;;;;;;;;;;5050705;28;20029;-81
2022/04/14 00:07:33;;;;;;;13.13;9.10;;;;;;;;;;5046685;28;20115;-82
2022/04/14 00:10:00;;;;;;;11.65;8.52;;;;;;;;;;5035079;28;20032;-81
2022/04/14 00:12:26;;;;;;;14.02;8.25;;;;;;;;;;5035986;28;20091;-81
2022/04/14 00:14:52;;;;;;;12.80;8.52;;;;;;;;;;5038636;28;20149;-82
2022/04/14 00:17:18;;;;;;;12.05;8.18;;;;;;;;;;5034966;28;20509;-81
2022/04/14 00:19:44;;;;;;;11.10;8.05;;;;;;;;;;5058546;28;20043;-80
2022/04/14 00:22:10;;;;;;;13.15;8.45;;;;;;;;;;5059886;28;20032;-83
2022/04/14 00:24:36;;;;;;;12.70;8.68;;;;;;;;;;5043375;28;20025;-83
2022/04/14 00:27:03;;;;;;;13.63;8.55;;;;;;;;;;5038007;28;20107;-82
2022/04/14 00:29:29;;;;;;;13.07;9.15;;;;;;;;;;5050711;28;20032;-82
2022/04/14 00:31:55;;;;;;;12.05;8.68;;;;;;;;;;5040380;28;20037;-82
2022/04/14 00:34:21;;;;;;;12.88;8.52;;;;;;;;;;5027092;28;20022;-82
2022/04/14 00:36:47;;;;;;;11.20;8.18;;;;;;;;;;5030760;28;20085;-82
2022/04/14 00:39:13;;;;;;;11.18;8.02;;;;;;;;;;5058132;28;20017;-82
2022/04/14 00:41:39;;;;;;;13.57;8.52;;;;;;;;;;5060874;28;20096;-82
2022/04/14 00:44:05;;;;;;;13.80;7.95;;;;;;;;;;5066688;28;20107;-82
2022/04/14 00:46:31;;;;;;;12.73;8.15;;;;;;;;;;5055613;28;20036;-83
2022/04/14 00:48:57;;;;;;;12.73;8.40;;;;;;;;;;5047994;28;20484;-83
2022/04/14 00:51:23;;;;;;;12.93;7.85;;;;;;;;;;5044494;28;20037;-82
2022/04/14 00:53:49;;;;;;;10.80;7.80;;;;;;;;;;5025777;28;20022;-82
2022/04/14 00:56:16;;;;;;;14.20;8.10;;;;;;;;;;5025540;28;20029;-82
2022/04/14 00:58:42;;;;;;;11.20;7.72;;;;;;;;;;5042245;28;20107;-82
2022/04/14 01:01:08;;;;;;;14.40;8.95;;;;;;;;;;5044404;28;20128;-82
2022/04/14 01:03:35;;;;;;;14.40;8.48;;;;;;;;;;5045138;28;20080;-82
2022/04/14 01:06:01;;;;;;;12.82;7.85;;;;;;;;;;5060215;28;20033;-83
2022/04/14 01:08:27;;;;;;;11.25;7.38;;;;;;;;;;5045126;28;20105;-82
2022/04/14 01:10:54;;;;;;;12.13;8.85;;;;;;;;;;5043959;28;20032;-83
2022/04/14 01:13:20;;;;;;;12.32;8.68;;;;;;;;;;5042756;28;20040;-83
2022/04/14 01:15:47;;;;;;;12.80;8.00;;;;;;;;;;5059611;28;20044;-82
2022/04/14 01:18:13;;;;;;;11.82;7.57;;;;;;;;;;5054740;28;20056;-83
2022/04/14 01:20:41;;;;;;;12.45;8.10;;;;;;;;;;5050301;28;20244;-82
2022/04/14 01:23:08;;;;;;;14.23;8.23;;;;;;;;;;5025722;28;20032;-82
2022/04/14 01:25:35;;;;;;;10.70;7.15;;;;;;;;;;5023287;28;20489;-85
2022/04/14 01:28:02;;;;;;;12.57;8.02;;;;;;;;;;5033685;28;20116;-82
2022/04/14 01:30:29;;;;;;;14.20;8.40;;;;;;;;;;5045752;28;20053;-82
2022/04/14 01:32:55;;;;;;;11.80;7.95;;;;;;;;;;5041156;28;20479;-82
2022/04/14 01:35:22;;;;;;;13.45;8.40;;;;;;;;;;5042751;28;20022;-82
2022/04/14 01:37:48;;;;;;;12.57;8.35;;;;;;;;;;5049432;28;20032;-83
2022/04/14 01:40:14;;;;;;;12.02;7.80;;;;;;;;;;5039027;28;20021;-81
2022/04/14 01:42:40;;;;;;;11.23;8.00;;;;;;;;;;5020473;28;20037;-82
2022/04/14 01:45:07;;;;;;;12.98;8.05;;;;;;;;;;5034760;28;20083;-80
2022/04/14 01:47:37;;;;;;;12.20;8.27;;;;;;;;;;5029949;28;20112;-81
2022/04/14 01:50:04;;;;;;;10.77;8.10;;;;;;;;;;5062424;28;20021;-81
2022/04/14 01:52:30;;;;;;;11.40;7.50;;;;;;;;;;5045361;28;20090;-82
2022/04/14 01:54:56;;;;;;;11.27;8.05;;;;;;;;;;5052940;28;20048;-82
2022/04/14 01:57:22;;;;;;;12.48;8.23;;;;;;;;;;5040083;28;20025;-82
2022/04/14 01:59:48;;;;;;;14.45;8.27;;;;;;;;;;5028453;28;20364;-81
2022/04/14 02:02:14;;;;;;;13.07;8.48;;;;;;;;;;5023627;28;20026;-82
2022/04/14 02:04:40;;;;;;;13.65;8.43;;;;;;;;;;5035076;28;20067;-81
2022/04/14 02:07:06;;;;;;;12.07;8.15;;;;;;;;;;5041058;28;20655;-82
2022/04/14 02:09:33;;;;;;;11.63;7.88;;;;;;;;;;5020704;28;20029;-82
2022/04/14 02:11:59;;;;;;;10.48;8.13;;;;;;;;;;5027355;28;20091;-81
2022/04/14 02:14:25;;;;;;;12.98;7.68;;;;;;;;;;5038452;28;20026;-81
2022/04/14 02:16:51;;;;;;;10.80;7.65;;;;;;;;;;5053004;28;20029;-82
2022/04/14 02:19:17;;;;;;;12.02;7.78;;;;;;;;;;5021746;28;20032;-81
2022/04/14 02:21:43;;;;;;;13.77;8.65;;;;;;;;;;5025987;28;20115;-81
2022/04/14 02:24:09;;;;;;;12.77;8.32;;;;;;;;;;5039964;28;20061;-82
2022/04/14 02:26:35;;;;;;;14.65;8.80;;;;;;;;;;5040080;28;20021;-82
2022/04/14 02:29:01;;;;;;;12.20;8.00;;;;;;;;;;5026736;28;20044;-80
2022/04/14 02:31:28;;;;;;;12.20;8.25;;;;;;;;;;5057095;28;20028;-82
2022/04/14 02:33:54;;;;;;;13.52;7.93;;;;;;;;;;5059922;28;20048;-81
2022/04/14 02:36:20;;;;;;;11.63;8.10;;;;;;;;;;5055037;28;20480;-83
2022/04/14 02:38:46;;;;;;;10.45;7.63;;;;;;;;;;5039390;28;20030;-83
2022/04/14 02:41:12;;;;;;;10.68;7.57;;;;;;;;;;5021497;28;20030;-81
2022/04/14 02:43:38;;;;;;;13.55;8.93;;;;;;;;;;5028675;28;20076;-82
2022/04/14 02:46:04;;;;;;;12.73;8.57;;;;;;;;;;5039561;28;20022;-82
2022/04/14 02:48:31;;;;;;;11.82;7.53;;;;;;;;;;5020240;28;20112;-82
2022/04/14 02:50:57;;;;;;;13.00;8.40;;;;;;;;;;5045743;28;20025;-82
2022/04/14 02:53:24;;;;;;;13.43;8.02;;;;;;;;;;5023849;28;20026;-80
2022/04/14 02:55:50;;;;;;;12.63;8.25;;;;;;;;;;5019451;28;20101;-82
2022/04/14 02:58:16;;;;;;;12.95;7.47;;;;;;;;;;5052909;28;20030;-82
2022/04/14 03:00:42;;;;;;;11.77;7.72;;;;;;;;;;5048585;28;20036;-82
2022/04/14 03:03:08;;;;;;;12.40;7.68;;;;;;;;;;5041683;28;20044;-82
2022/04/14 03:05:35;;;;;;;11.52;8.02;;;;;;;;;;5026463;28;20033;-82
2022/04/14 03:08:01;;;;;;;12.98;8.25;;;;;;;;;;5026661;28;20463;-83
2022/04/14 03:10:27;;;;;;;13.48;8.25;;;;;;;;;;5029976;28;20033;-82
2022/04/14 03:12:53;;;;;;;15.70;8.95;;;;;;;;;;5022426;28;20022;-81
2022/04/14 03:15:19;;;;;;;14.18;8.20;;;;;;;;;;5020279;28;20026;-82
2022/04/14 03:17:45;;;;;;;11.38;7.50;;;;;;;;;;5021094;28;20094;-82
2022/04/14 03:20:12;;;;;;;13.25;8.75;;;;;;;;;;5031088;28;20018;-82
2022/04/14 03:22:38;;;;;;;13.45;8.80;;;;;;;;;;5033270;28;20048;-82
2022/04/14 03:25:05;;;;;;;12.15;8.40;;;;;;;;;;5041676;28;20022;-82
2022/04/14 03:27:31;;;;;;;12.80;8.73;;;;;;;;;;5035832;28;20233;-83
2022/04/14 03:29:57;;;;;;;13.07;8.75;;;;;;;;;;5041113;28;20092;-83
2022/04/14 03:32:24;;;;;;;14.15;8.75;;;;;;;;;;5058669;28;20092;-83
2022/04/14 03:34:50;;;;;;;12.25;7.40;;;;;;;;;;5059763;28;20096;-82
2022/04/14 03:37:16;;;;;;;14.85;9.80;;;;;;;;;;5039757;28;20065;-83
2022/04/14 03:39:42;;;;;;;15.30;9.15;;;;;;;;;;5032476;28;20057;-83
2022/04/14 03:42:08;;;;;;;14.00;8.40;;;;;;;;;;5040451;28;20482;-82
2022/04/14 03:44:34;;;;;;;12.27;7.90;;;;;;;;;;5040990;28;20022;-82
2022/04/14 03:47:03;;;;;;;14.00;8.68;;;;;;;;;;5039163;28;20057;-82
2022/04/14 03:49:29;;;;;;;13.48;8.60;;;;;;;;;;5033631;28;20037;-83
2022/04/14 03:51:55;;;;;;;14.55;8.93;;;;;;;;;;5032533;28;20048;-81
2022/04/14 03:54:21;;;;;;;13.93;8.65;;;;;;;;;;5043558;28;20040;-82
2022/04/14 03:56:48;;;;;;;12.35;8.15;;;;;;;;;;5032927;28;20033;-82
2022/04/14 03:59:15;;;;;;;13.77;8.35;;;;;;;;;;5033739;28;20018;-82
2022/04/14 04:01:41;;;;;;;14.10;8.77;;;;;;;;;;5032849;28;20026;-82
2022/04/14 04:04:07;;;;;;;13.05;8.82;;;;;;;;;;5045306;28;20044;-81
2022/04/14 04:06:34;;;;;;;12.70;7.75;;;;;;;;;;5043123;28;20025;-83
2022/04/14 04:09:00;;;;;;;12.93;9.32;;;;;;;;;;5038992;28;20041;-82
2022/04/14 04:11:26;;;;;;;12.88;8.48;;;;;;;;;;5032997;28;20109;-82
2022/04/14 04:13:52;;;;;;;14.30;9.27;;;;;;;;;;5023295;28;20030;-80
2022/04/14 04:16:18;;;;;;;12.98;9.68;;;;;;;;;;5023596;28;20084;-82
2022/04/14 04:18:44;;;;;;;17.30;9.02;;;;;;;;;;5026389;28;20115;-82
2022/04/14 04:21:10;;;;;;;15.02;8.13;;;;;;;;;;5042912;28;20022;-82
2022/04/14 04:23:36;;;;;;;14.82;8.88;;;;;;;;;;5045930;28;20034;-82
2022/04/14 04:26:02;;;;;;;13.15;7.90;;;;;;;;;;5038070;28;20041;-82
2022/04/14 04:28:30;;;;;;;15.45;9.68;;;;;;;;;;5031180;28;20499;-82
2022/04/14 04:30:56;;;;;;;16.75;9.65;;;;;;;;;;5027522;28;20026;-82
2022/04/14 04:33:22;;;;;;;13.43;9.05;;;;;;;;;;5035288;28;20060;-83
2022/04/14 04:35:50;;;;;;;13.95;9.30;;;;;;;;;;5046628;28;20460;-83
2022/04/14 04:38:16;;;;;;;13.68;8.98;;;;;;;;;;5042030;28;20026;-83
2022/04/14 04:40:42;;;;;;;14.43;9.00;;;;;;;;;;5030584;28;20041;-83
2022/04/14 04:43:09;;;;;;;21.33;10.55;;;;;;;;;;5039620;28;20033;-83
2022/04/14 04:45:35;;;;;;;14.63;8.77;;;;;;;;;;5039782;28;20021;-82
2022/04/14 04:48:02;;;;;;;14.57;10.00;;;;;;;;;;5026006;28;20030;-83
2022/04/14 04:50:28;;;;;;;12.60;8.07;;;;;;;;;;5039059;28;20052;-82
2022/04/14 04:52:54;;;;;;;13.68;8.93;;;;;;;;;;5030248;28;20117;-84
2022/04/14 04:55:20;;;;;;;15.68;9.95;;;;;;;;;;5032315;28;20069;-83
2022/04/14 04:57:46;;;;;;;14.68;8.80;;;;;;;;;;5034467;28;20030;-83
2022/04/14 05:00:12;;;;;;;12.27;8.85;;;;;;;;;;5046936;28;20055;-83
2022/04/14 05:02:40;;;;;;;12.98;7.95;;;;;;;;;;5029592;28;20038;-82
2022/04/14 05:05:06;;;;;;;14.02;8.85;;;;;;;;;;5026055;28;20025;-81
2022/04/14 05:07:32;;;;;;;12.40;8.45;;;;;;;;;;5022192;28;20053;-82
2022/04/14 05:09:58;;;;;;;12.18;7.93;;;;;;;;;;5019467;28;20060;-83
2022/04/14 05:12:24;;;;;;;14.38;8.00;;;;;;;;;;5024008;28;20021;-83
2022/04/14 05:14:50;;;;;;;12.35;8.45;;;;;;;;;;5035781;28;20060;-84
2022/04/14 05:17:16;;;;;;;14.05;9.35;;;;;;;;;;5031309;28;20099;-83
2022/04/14 05:19:42;;;;;;;10.90;8.15;;;;;;;;;;5025561;28;20067;-83
2022/04/14 05:22:08;;;;;;;12.60;8.15;;;;;;;;;;5029088;28;20112;-83
2022/04/14 05:24:34;;;;;;;10.98;7.90;;;;;;;;;;5044163;28;20299;-82
2022/04/14 05:27:00;;;;;;;14.75;8.85;;;;;;;;;;5035222;28;20069;-82
2022/04/14 05:29:26;;;;;;;15.38;7.90;;;;;;;;;;5025893;28;20036;-82
2022/04/14 05:31:52;;;;;;;13.63;9.25;;;;;;;;;;5026086;28;20030;-83
2022/04/14 05:34:18;;;;;;;12.52;8.63;;;;;;;;;;5026968;28;20099;-83
2022/04/14 05:36:44;;;;;;;17.80;10.75;;;;;;;;;;5027763;28;20400;-81
2022/04/14 05:39:10;;;;;;;13.30;8.65;;;;;;;;;;5026178;28;20038;-83
2022/04/14 05:41:36;;;;;;;14.02;9.20;;;;;;;;;;5041192;28;20087;-83
2022/04/14 05:44:02;;;;;;;13.63;9.05;;;;;;;;;;5037958;28;20022;-81
2022/04/14 05:46:28;;;;;;;12.20;8.50;;;;;;;;;;5035678;28;20021;-83
2022/04/14 05:48:54;;;;;;;13.80;8.45;;;;;;;;;;5046066;28;20021;-82
2022/04/14 05:51:21;;;;;;;15.75;9.07;;;;;;;;;;5040630;28;20045;-82
2022/04/14 05:53:53;;;;;;;11.27;8.13;;;;;;;;;;5038291;28;20368;-82
2022/04/14 05:56:19;;;;;;;13.52;8.05;;;;;;;;;;5042982;28;20036;-83
2022/04/14 05:58:46;;;;;;;10.38;7.47;;;;;;;;;;5042637;28;20109;-83
2022/04/14 06:01:12;;;;;;;12.50;7.88;;;;;;;;;;5057686;28;20041;-85
2022/04/14 06:03:38;;;;;;;10.55;6.80;;;;;;;;;;5050357;28;20029;-83
2022/04/14 06:06:05;;;;;;;14.15;6.93;;;;;;;;;;5051527;28;20034;-84
2022/04/14 06:08:31;;;;;;;14.85;7.45;;;;;;;;;;5045749;28;20050;-86
2022/04/14 06:10:57;;;;;;;12.15;7.15;;;;;;;;;;5048262;28;20052;-85
2022/04/14 06:13:23;;;;;;;11.27;7.53;;;;;;;;;;5041677;28;20041;-82
2022/04/14 06:15:49;;;;;;;11.23;7.78;;;;;;;;;;5031371;28;20124;-82
2022/04/14 06:18:15;;;;;;;16.08;7.90;;;;;;;;;;5031129;28;20021;-82
2022/04/14 06:20:41;;;;;;;13.48;7.40;;;;;;;;;;5034851;28;20112;-83
2022/04/14 06:23:08;;;;;;;12.75;7.72;;;;;;;;;;5041498;28;20071;-82
2022/04/14 06:25:34;;;;;;;11.27;7.30;;;;;;;;;;5036192;28;20045;-83
2022/04/14 06:28:01;;;;;;;14.57;7.90;;;;;;;;;;5031860;28;20026;-82
2022/04/14 06:30:27;;;;;;;12.10;7.43;;;;;;;;;;5029546;28;20022;-83
2022/04/14 06:33:00;;;;;;;14.10;7.93;;;;;;;;;;5025499;28;20040;-82
2022/04/14 06:35:27;;;;;;;11.25;7.15;;;;;;;;;;5031206;28;20086;-81
2022/04/14 06:37:53;;;;;;;12.93;7.43;;;;;;;;;;5050711;28;20032;-82
2022/04/14 06:40:26;;;;;;;10.13;7.05;;;;;;;;;;5060380;28;20030;-84
2022/04/14 06:42:53;;;;;;;9.20;6.70;;;;;;;;;;5044663;28;20025;-84
2022/04/14 06:45:20;;;;;;;10.93;7.60;;;;;;;;;;5056840;28;20010;-85
2022/04/14 06:47:45;;;;;;;10.80;6.80;;;;;;;;;;5055541;28;20044;-85
2022/04/14 06:50:12;;;;;;;10.57;6.90;;;;;;;;;;5041481;28;20022;-81
2022/04/14 06:52:38;;;;;;;12.10;7.22;;;;;;;;;;5029413;28;20029;-82
2022/04/14 06:55:05;;;;;;;11.38;7.07;;;;;;;;;;5034561;28;20365;-82
2022/04/14 06:57:31;;;;;;;13.40;6.15;;;;;;;;;;5035864;28;20053;-82
2022/04/14 06:59:57;;;;;;;9.43;6.25;;;;;;;;;;5021580;28;20030;-83
2022/04/14 07:02:23;;;;;;;9.80;6.55;;;;;;;;;;5028109;28;20038;-81
2022/04/14 07:04:50;;;;;;;9.75;5.93;;;;;;;;;;5028994;28;20400;-83
2022/04/14 07:07:16;;;;;;;7.47;5.50;;;;;;;;;;5024262;28;20353;-82
2022/04/14 07:09:42;;;;;;;10.48;5.72;;;;;;;;;;5018201;28;20455;-82
2022/04/14 07:12:08;;;;;;;8.90;5.93;;;;;;;;;;5018479;28;20064;-82
2022/04/14 07:14:34;;;;;;;9.30;6.18;;;;;;;;;;5030561;28;20030;-82
2022/04/14 07:17:01;;;;;;;10.82;6.30;;;;;;;;;;5028389;28;20025;-84
2022/04/14 07:19:27;;;;;;;8.52;6.28;;;;;;;;;;5018016;28;20048;-82
2022/04/14 07:21:54;;;;;;;7.82;5.25;;;;;;;;;;5032213;28;20052;-82
2022/04/14 07:24:20;;;;;;;9.55;6.47;;;;;;;;;;5037054;28;20030;-83
2022/04/14 07:26:46;;;;;;;9.45;6.05;;;;;;;;;;5026496;28;20193;-82
2022/04/14 07:29:12;;;;;;;10.27;6.18;;;;;;;;;;5038549;28;20029;-82
2022/04/14 07:31:41;;;;;;;11.70;6.15;;;;;;;;;;5048944;28;20480;-82
2022/04/14 07:34:08;;;;;;;8.40;6.07;;;;;;;;;;5043869;28;20025;-82
2022/04/14 07:36:34;;;;;;;7.55;5.70;;;;;;;;;;5025454;28;20078;-83
2022/04/14 07:39:01;;;;;;;14.27;6.60;;;;;;;;;;5021968;28;20531;-82
2022/04/14 07:41:27;;;;;;;8.77;5.60;;;;;;;;;;5021869;28;20026;-83
2022/04/14 07:43:54;;;;;;;10.65;5.88;;;;;;;;;;5020057;28;20068;-83
2022/04/14 07:46:20;;;;;;;10.00;6.13;;;;;;;;;;5054570;28;20052;-84
2022/04/14 07:48:46;;;;;;;11.02;6.28;;;;;;;;;;5048939;28;20394;-82
2022/04/14 07:51:12;;;;;;;8.93;6.20;;;;;;;;;;5044307;28;20032;-83
2022/04/14 07:53:38;;;;;;;11.75;6.93;;;;;;;;;;5029808;28;20057;-82
2022/04/14 07:56:05;;;;;;;8.48;5.75;;;;;;;;;;5063982;28;20477;-83
2022/04/14 07:58:33;;;;;;;8.85;5.80;;;;;;;;;;5034403;28;20618;-84
2022/04/14 08:00:59;;;;;;;7.47;6.05;;;;;;;;;;5040487;28;20024;-82
2022/04/14 08:03:25;;;;;;;10.40;5.65;;;;;;;;;;5041281;28;20486;-83
2022/04/14 08:05:51;;;;;;;8.82;5.40;;;;;;;;;;5041469;28;20033;-82
2022/04/14 08:08:18;;;;;;;9.73;5.75;;;;;;;;;;5026380;28;20051;-83
2022/04/14 08:10:48;;;;;;;10.77;5.40;;;;;;;;;;5041638;28;20064;-83
2022/04/14 08:13:14;;;;;;;9.65;5.53;;;;;;;;;;5029356;28;20026;-83
2022/04/14 08:15:40;;;;;;;12.15;6.13;;;;;;;;;;5035943;28;20049;-83
2022/04/14 08:18:07;;;;;;;8.45;5.63;;;;;;;;;;5032100;28;20133;-82
2022/04/14 08:20:34;;;;;;;9.48;5.60;;;;;;;;;;5042978;28;20021;-83
2022/04/14 08:23:01;;;;;;;8.65;5.18;;;;;;;;;;5037558;28;20034;-83
2022/04/14 08:25:28;;;;;;;8.57;5.40;;;;;;;;;;5026621;28;20064;-84
2022/04/14 08:27:55;;;;;;;7.65;4.95;;;;;;;;;;5034527;28;20522;-84
2022/04/14 08:30:22;;;;;;;8.10;4.93;;;;;;;;;;5038659;28;20030;-84
2022/04/14 08:32:48;;;;;;;9.38;5.15;;;;;;;;;;5046427;28;20045;-81
2022/04/14 08:35:15;;;;;;;9.32;5.20;;;;;;;;;;5050438;28;20025;-81
2022/04/14 08:37:42;;;;;;;8.45;5.57;;;;;;;;;;5061441;28;20018;-80
2022/04/14 08:40:09;;;;;;;8.85;4.80;;;;;;;;;;5049216;28;20026;-81
2022/04/14 08:42:39;;;;;;;9.50;4.88;;;;;;;;;;5043981;28;20031;-84
2022/04/14 08:45:12;;;;;;;8.50;4.78;;;;;;;;;;5045063;28;20402;-81
2022/04/14 08:47:39;;;;;;;6.60;5.22;;;;;;;;;;5043581;28;20131;-81
2022/04/14 08:50:06;;;;;;;8.50;5.03;;;;;;;;;;5043062;28;20480;-83
2022/04/14 08:52:33;;;;;;;9.15;5.40;;;;;;;;;;5041599;28;20044;-82
2022/04/14 08:55:00;;;;;;;7.93;5.53;;;;;;;;;;5043354;28;20124;-81
2022/04/14 08:57:26;;;;;;;8.35;5.00;;;;;;;;;;5057372;28;20052;-81
2022/04/14 08:59:52;;;;;;;7.40;4.65;;;;;;;;;;5061412;28;20014;-81
2022/04/14 09:02:21;;;;;;;7.25;5.30;;;;;;;;;;5055370;28;20059;-81
2022/04/14 09:04:49;;;;;;;11.73;5.10;;;;;;;;;;5053752;28;20021;-81
2022/04/14 09:07:15;;;;;;;8.02;5.50;;;;;;;;;;5062978;28;20577;-83
2022/04/14 09:09:42;;;;;;;8.65;4.97;;;;;;;;;;5053962;28;20266;-81
2022/04/14 09:12:08;;;;;;;9.35;4.97;;;;;;;;;;5042164;28;20052;-83
2022/04/14 09:14:34;;;;;;;8.65;5.60;;;;;;;;;;5026251;28;20046;-81
2022/04/14 09:17:09;;;;;;;9.13;4.95;;;;;;;;;;5042669;28;20021;-83
2022/04/14 09:19:36;;;;;;;7.43;5.43;;;;;;;;;;5037576;28;20056;-82
2022/04/14 09:22:10;;;;;;;9.13;5.03;;;;;;;;;;5039295;28;20057;-85
2022/04/14 09:24:42;;;;;;;7.95;5.15;;;;;;;;;;5029588;28;20037;-84
2022/04/14 09:27:09;;;;;;;9.90;5.47;;;;;;;;;;5026459;28;20097;-85
2022/04/14 09:29:35;;;;;;;9.20;5.05;;;;;;;;;;5034159;28;20072;-83
2022/04/14 09:32:01;;;;;;;7.97;5.45;;;;;;;;;;5045875;28;20025;-84
2022/04/14 09:34:51;;;;;;;9.38;6.05;;;;;;;;;;5035404;28;20018;-82
2022/04/14 09:37:17;;;;;;;9.38;5.22;;;;;;;;;;5023971;28;20053;-83
2022/04/14 09:39:54;;;;;;;10.13;4.95;;;;;;;;;;5026864;28;20376;-83
2022/04/14 09:42:27;;;;;;;8.57;5.93;;;;;;;;;;5032342;28;20088;-83
2022/04/14 09:44:53;;;;;;;8.45;5.40;;;;;;;;;;5038974;28;20031;-84
2022/04/14 09:47:23;;;;;;;7.82;4.97;;;;;;;;;;5035600;28;20048;-83
2022/04/14 09:49:49;;;;;;;9.15;4.90;;;;;;;;;;5038199;28;20041;-83
2022/04/14 09:52:15;;;;;;;8.18;5.50;;;;;;;;;;5044520;28;20034;-83
2022/04/14 09:54:41;;;;;;;7.88;4.68;;;;;;;;;;5039447;28;20036;-83
2022/04/14 09:57:10;;;;;;;7.47;4.78;;;;;;;;;;5044741;28;20085;-83
2022/04/14 09:59:40;;;;;;;7.40;4.80;;;;;;;;;;5029796;28;20048;-83
2022/04/14 10:02:12;;;;;;;7.10;5.25;;;;;;;;;;5024369;28;20513;-81
2022/04/14 10:04:39;;;;;;;9.10;5.22;;;;;;;;;;5029631;28;20109;-83
2022/04/14 10:07:15;;;;;;;9.93;5.30;;;;;;;;;;5048348;28;20048;-83
2022/04/14 10:09:42;;;;;;;7.78;4.82;;;;;;;;;;5050112;28;20053;-83
2022/04/14 10:12:20;;;;;;;8.15;5.07;;;;;;;;;;5043667;28;20030;-81
2022/04/14 10:15:02;;;;;;;7.55;5.22;;;;;;;;;;5034572;28;20041;-83
2022/04/14 10:17:30;;;;;;;8.90;5.10;;;;;;;;;;5036605;28;20035;-82
2022/04/14 10:19:56;;;;;;;7.75;5.07;;;;;;;;;;5038766;28;20108;-84
2022/04/14 10:22:23;;;;;;;8.98;4.57;;;;;;;;;;5027503;28;20037;-84
2022/04/14 10:24:51;;;;;;;6.97;5.13;;;;;;;;;;5024100;28;20060;-84
2022/04/14 10:27:17;;;;;;;11.10;5.07;;;;;;;;;;5039914;28;20082;-83
2022/04/14 10:29:44;;;;;;;5.78;4.25;;;;;;;;;;5033840;28;20041;-83
2022/04/14 10:32:11;;;;;;;9.00;5.00;;;;;;;;;;5027054;28;20061;-83
2022/04/14 10:34:38;;;;;;;8.15;5.15;;;;;;;;;;5026476;28;20080;-83
2022/04/14 10:37:07;;;;;;;9.27;5.00;;;;;;;;;;5027206;28;20088;-84
2022/04/14 10:39:36;;;;;;;8.02;4.75;;;;;;;;;;5024770;28;20033;-84
2022/04/14 10:42:03;;;;;;;7.82;4.63;;;;;;;;;;5034602;28;20060;-84
2022/04/14 10:44:49;;;;;;;7.85;5.13;;;;;;;;;;5041181;28;20030;-84
2022/04/14 10:47:34;;;;;;;9.90;4.72;;;;;;;;;;5042602;28;20021;-84
2022/04/14 10:50:00;;;;;;;8.27;5.35;;;;;;;;;;5046847;28;20027;-84
2022/04/14 10:52:27;;;;;;;8.13;4.70;;;;;;;;;;5041956;28;20056;-83
2022/04/14 10:54:57;;;;;;;9.45;4.78;;;;;;;;;;5040354;28;20026;-84
2022/04/14 10:57:39;;;;;;;8.45;5.03;;;;;;;;;;5032154;28;20037;-83
2022/04/14 11:00:21;;;;;;;7.55;4.30;;;;;;;;;;5035994;28;20028;-83
2022/04/14 11:03:03;;;;;;;7.32;4.60;;;;;;;;;;5023693;28;20087;-86
2022/04/14 11:05:46;;;;;;;6.75;4.68;;;;;;;;;;5038382;28;20034;-85
2022/04/14 11:08:23;;;;;;;6.72;4.28;;;;;;;;;;5038006;28;20045;-84
2022/04/14 11:10:54;;;;;;;5.80;4.45;;;;;;;;;;5028419;28;20171;-84
2022/04/14 11:13:20;;;;;;;7.38;4.97;;;;;;;;;;5047488;28;20028;-84
2022/04/14 11:15:46;;;;;;;8.73;4.28;;;;;;;;;;5041010;28;20025;-84
2022/04/14 11:18:12;;;;;;;8.38;4.78;;;;;;;;;;5037557;28;20033;-83
2022/04/14 11:20:44;;;;;;;7.75;4.90;;;;;;;;;;5055249;28;20060;-83
2022/04/14 11:23:16;;;;;;;9.32;5.05;;;;;;;;;;5033575;28;20568;-84
2022/04/14 11:25:49;;;;;;;8.57;4.75;;;;;;;;;;5028953;28;20072;-84
2022/04/14 11:28:20;;;;;;;8.88;5.22;;;;;;;;;;5030043;28;20030;-84
2022/04/14 11:30:46;;;;;;;7.40;4.70;;;;;;;;;;5050732;28;20033;-86
2022/04/14 11:33:21;;;;;;;8.25;4.70;;;;;;;;;;5060943;28;20021;-84
2022/04/14 11:35:48;;;;;;;7.57;4.70;;;;;;;;;;5042298;28;20030;-84
2022/04/14 11:38:33;;;;;;;8.57;5.00;;;;;;;;;;5022895;28;20066;-85
2022/04/14 11:40:59;;;;;;;6.65;4.60;;;;;;;;;;5026025;28;20703;-85
2022/04/14 11:43:25;;;;;;;7.75;4.10;;;;;;;;;;5031630;28;20029;-85
2022/04/14 11:45:51;;;;;;;7.88;5.35;;;;;;;;;;5033310;28;20030;-85
2022/04/14 11:48:17;;;;;;;7.90;4.97;;;;;;;;;;5041747;28;20026;-84
2022/04/14 11:50:43;;;;;;;8.57;5.28;;;;;;;;;;5039220;28;20483;-84
2022/04/14 11:53:09;;;;;;;7.30;4.82;;;;;;;;;;5036568;28;20025;-84
2022/04/14 11:55:36;;;;;;;6.20;4.15;;;;;;;;;;5023323;28;20022;-84
2022/04/14 11:58:10;;;;;;;9.07;4.82;;;;;;;;;;5023235;28;20017;-85
2022/04/14 12:00:43;;;;;;;7.57;4.43;;;;;;;;;;5049199;28;20025;-84
2022/04/14 12:03:09;;;;;;;10.82;4.68;;;;;;;;;;5056967;28;20025;-84
2022/04/14 12:05:35;;;;;;;6.97;4.60;;;;;;;;;;5038953;28;20029;-84
2022/04/14 12:08:07;;;;;;;7.78;5.05;;;;;;;;;;5039543;28;20060;-84
2022/04/14 12:10:33;;;;;;;7.68;4.65;;;;;;;;;;5055742;28;20032;-85
2022/04/14 12:13:09;;;;;;;8.90;4.50;;;;;;;;;;5043806;28;20040;-85
2022/04/14 12:15:36;;;;;;;8.68;4.70;;;;;;;;;;5040080;28;20014;-84
2022/04/14 12:18:09;;;;;;;8.60;4.85;;;;;;;;;;5039250;28;20120;-86
2022/04/14 12:20:36;;;;;;;6.82;4.85;;;;;;;;;;5030253;28;20076;-85
2022/04/14 12:23:02;;;;;;;6.20;4.50;;;;;;;;;;5037411;28;20046;-85
2022/04/14 12:25:29;;;;;;;8.15;4.72;;;;;;;;;;5024598;28;20034;-85
2022/04/14 12:27:55;;;;;;;8.60;4.57;;;;;;;;;;5032113;28;20017;-85
2022/04/14 12:30:22;;;;;;;7.10;4.45;;;;;;;;;;5043623;28;20029;-85
2022/04/14 12:32:48;;;;;;;8.07;4.65;;;;;;;;;;5036402;28;20107;-85
2022/04/14 12:35:35;;;;;;;8.30;5.10;;;;;;;;;;5022768;28;20026;-84
2022/04/14 12:38:13;;;;;;;7.38;4.57;;;;;;;;;;5029569;28;20029;-84
2022/04/14 12:40:52;;;;;;;6.85;4.18;;;;;;;;;;5041692;28;20048;-84
2022/04/14 12:43:26;;;;;;;6.80;4.90;;;;;;;;;;5034513;28;20049;-84
2022/04/14 12:45:53;;;;;;;8.57;4.57;;;;;;;;;;5041020;28;20033;-85
2022/04/14 12:48:48;;;;;;;8.73;4.60;;;;;;;;;;5041457;28;20048;-84
2022/04/14 12:51:14;;;;;;;7.38;4.60;;;;;;;;;;5044549;28;20036;-85
2022/04/14 12:53:40;;;;;;;7.60;4.78;;;;;;;;;;5056437;28;20082;-85
2022/04/14 12:56:10;;;;;;;10.45;4.65;;;;;;;;;;5058817;28;20029;-85
2022/04/14 12:58:36;;;;;;;11.25;5.30;;;;;;;;;;5031672;28;20497;-85
2022/04/14 13:01:09;;;;;;;8.93;4.43;;;;;;;;;;5050824;28;20171;-86
2022/04/14 13:03:47;;;;;;;8.73;4.38;;;;;;;;;;5053765;28;20111;-87
2022/04/14 13:06:18;;;;;;;7.65;4.45;;;;;;;;;;5052235;28;20043;-85
2022/04/14 13:08:46;;;;;;;7.32;5.20;;;;;;;;;;5028695;28;20049;-85
2022/04/14 13:11:30;;;;;;;7.20;4.30;;;;;;;;;;5033471;28;20056;-85
2022/04/14 13:13:56;;;;;;;6.32;4.40;;;;;;;;;;5041586;28;20063;-85
2022/04/14 13:16:23;;;;;;;9.45;4.72;;;;;;;;;;5036110;28;20491;-84
2022/04/14 13:18:49;;;;;;;7.00;4.28;;;;;;;;;;5035995;28;20534;-85
2022/04/14 13:21:17;;;;;;;7.90;4.60;;;;;;;;;;5036729;28;20380;-85
2022/04/14 13:23:43;;;;;;;6.72;4.57;;;;;;;;;;5050450;28;20029;-85
2022/04/14 13:26:09;;;;;;;7.30;4.72;;;;;;;;;;5040485;28;20556;-84
2022/04/14 13:28:35;;;;;;;5.93;4.30;;;;;;;;;;5022655;28;20034;-85
2022/04/14 13:31:01;;;;;;;9.90;4.50;;;;;;;;;;5020484;28;20056;-85
2022/04/14 13:33:29;;;;;;;8.02;4.47;;;;;;;;;;5032893;28;20063;-84
2022/04/14 13:35:55;;;;;;;10.40;4.93;;;;;;;;;;5033678;28;20048;-86
2022/04/14 13:38:21;;;;;;;6.65;4.43;;;;;;;;;;5035826;28;20383;-85
2022/04/14 13:40:47;;;;;;;6.75;4.68;;;;;;;;;;5024715;28;20029;-86
2022/04/14 13:43:13;;;;;;;8.55;4.53;;;;;;;;;;5019183;28;20026;-86
2022/04/14 13:45:39;;;;;;;7.07;4.40;;;;;;;;;;5017390;28;20026;-84
2022/04/14 13:48:05;;;;;;;7.28;4.10;;;;;;;;;;5023088;28;20030;-85
2022/04/14 13:50:34;;;;;;;9.57;5.00;;;;;;;;;;5025242;28;20033;-85
2022/04/14 13:53:01;;;;;;;10.10;4.53;;;;;;;;;;5029446;28;20029;-86
2022/04/14 13:55:27;;;;;;;7.03;4.60;;;;;;;;;;5022398;28;20025;-85
2022/04/14 13:57:54;;;;;;;7.97;4.35;;;;;;;;;;5038271;28;20068;-83
2022/04/14 14:00:22;;;;;;;7.20;4.10;;;;;;;;;;5059627;28;20029;-87
2022/04/14 14:02:48;;;;;;;6.65;3.88;;;;;;;;;;5045944;28;20010;-84
2022/04/14 14:05:15;;;;;;;6.78;4.35;;;;;;;;;;5051825;28;20026;-84
2022/04/14 14:07:41;;;;;;;7.55;4.35;;;;;;;;;;5045179;28;20068;-86
2022/04/14 14:10:07;;;;;;;5.75;3.92;;;;;;;;;;5067761;28;20068;-86
2022/04/14 14:12:39;;;;;;;8.13;4.43;;;;;;;;;;5057018;28;20091;-84
2022/04/14 14:15:07;;;;;;;6.57;4.03;;;;;;;;;;5034582;28;20503;-83
2022/04/14 14:17:38;;;;;;;7.78;4.55;;;;;;;;;;5028688;28;20109;-84
2022/04/14 14:20:04;;;;;;;6.75;4.10;;;;;;;;;;5030863;28;20510;-84
2022/04/14 14:22:30;;;;;;;8.02;4.45;;;;;;;;;;5026216;28;20056;-85
2022/04/14 14:24:56;;;;;;;7.53;4.32;;;;;;;;;;5033996;28;20041;-84
2022/04/14 14:27:22;;;;;;;8.55;4.03;;;;;;;;;;5032004;28;20459;-84
2022/04/14 14:29:49;;;;;;;6.65;4.28;;;;;;;;;;5020173;28;20037;-83
2022/04/14 14:32:15;;;;;;;9.15;4.35;;;;;;;;;;5027220;28;20052;-84
2022/04/14 14:34:41;;;;;;;7.82;4.85;;;;;;;;;;5031677;28;20025;-85
2022/04/14 14:37:07;;;;;;;7.45;4.47;;;;;;;;;;5033882;28;20014;-84